地図

経路データ

SID SEASON NUMBER BASIN SUBBASIN NAME ISO_TIME NATURE LAT LON WMO_WIND WMO_PRES WMO_AGENCY TRACK_TYPE DIST2LAND LANDFALL IFLAG USA_AGENCY USA_ATCF_ID USA_LAT USA_LON USA_RECORD USA_STATUS USA_WIND USA_PRES USA_SSHS USA_R34_NE USA_R34_SE USA_R34_SW USA_R34_NW USA_R50_NE USA_R50_SE USA_R50_SW USA_R50_NW USA_R64_NE USA_R64_SE USA_R64_SW USA_R64_NW USA_POCI USA_ROCI USA_RMW USA_EYE TOKYO_LAT TOKYO_LON TOKYO_GRADE TOKYO_WIND TOKYO_PRES TOKYO_R50_DIR TOKYO_R50_LONG TOKYO_R50_SHORT TOKYO_R30_DIR TOKYO_R30_LONG TOKYO_R30_SHORT TOKYO_LAND CMA_LAT CMA_LON CMA_CAT CMA_WIND CMA_PRES HKO_LAT HKO_LON HKO_CAT HKO_WIND HKO_PRES NEWDELHI_LAT NEWDELHI_LON NEWDELHI_GRADE NEWDELHI_WIND NEWDELHI_PRES NEWDELHI_CI NEWDELHI_DP NEWDELHI_POCI REUNION_LAT REUNION_LON REUNION_TYPE REUNION_WIND REUNION_PRES REUNION_TNUM REUNION_CI REUNION_RMW REUNION_R34_NE REUNION_R34_SE REUNION_R34_SW REUNION_R34_NW REUNION_R50_NE REUNION_R50_SE REUNION_R50_SW REUNION_R50_NW REUNION_R64_NE REUNION_R64_SE REUNION_R64_SW REUNION_R64_NW BOM_LAT BOM_LON BOM_TYPE BOM_WIND BOM_PRES BOM_TNUM BOM_CI BOM_RMW BOM_R34_NE BOM_R34_SE BOM_R34_SW BOM_R34_NW BOM_R50_NE BOM_R50_SE BOM_R50_SW BOM_R50_NW BOM_R64_NE BOM_R64_SE BOM_R64_SW BOM_R64_NW BOM_ROCI BOM_POCI BOM_EYE BOM_POS_METHOD BOM_PRES_METHOD NADI_LAT NADI_LON NADI_CAT NADI_WIND NADI_PRES WELLINGTON_LAT WELLINGTON_LON WELLINGTON_WIND WELLINGTON_PRES DS824_LAT DS824_LON DS824_STAGE DS824_WIND DS824_PRES TD9636_LAT TD9636_LON TD9636_STAGE TD9636_WIND TD9636_PRES TD9635_LAT TD9635_LON TD9635_WIND TD9635_PRES TD9635_ROCI NEUMANN_LAT NEUMANN_LON NEUMANN_CLASS NEUMANN_WIND NEUMANN_PRES MLC_LAT MLC_LON MLC_CLASS MLC_WIND MLC_PRES USA_GUST BOM_GUST BOM_GUST_PER REUNION_GUST REUNION_GUST_PER USA_SEAHGT USA_SEARAD_NE USA_SEARAD_SE USA_SEARAD_SW USA_SEARAD_NW STORM_SPEED STORM_DIR
1945172N19274 1945 28 NA CS NOT_NAMED 1945-06-20 12:00:00 TS 19.0000 -85.7000 35 hurdat_atl main 187 171 O_____________ hurdat_atl AL011945 19.0000 -85.7000 TS 35 0 5 340
1945172N19274 1945 28 NA CS NOT_NAMED 1945-06-20 15:00:00 TS 19.2525 -85.7975 main 169 157 P_____________ AL011945 19.2525 -85.7975 TS 37 0 5 339
1945172N19274 1945 28 NA CS NOT_NAMED 1945-06-20 18:00:00 TS 19.5000 -85.9000 40 hurdat_atl main 157 147 O_____________ hurdat_atl AL011945 19.5000 -85.9000 TS 40 0 5 338
1945172N19274 1945 28 NA CS NOT_NAMED 1945-06-20 21:00:00 TS 19.7425 -86.0075 main 148 122 P_____________ AL011945 19.7425 -86.0075 TS 40 0 5 339
1945172N19274 1945 28 NA CS NOT_NAMED 1945-06-21 00:00:00 TS 20.0000 -86.1000 40 hurdat_atl main 122 91 O_____________ hurdat_atl AL011945 20.0000 -86.1000 TS 40 0 6 345
1945172N19274 1945 28 NA CS NOT_NAMED 1945-06-21 03:00:00 TS 20.2775 -86.1576 main 91 76 P_____________ AL011945 20.2775 -86.1576 TS 40 0 6 351
1945172N19274 1945 28 NA CS NOT_NAMED 1945-06-21 06:00:00 TS 20.6000 -86.2000 40 hurdat_atl main 76 42 O_____________ hurdat_atl AL011945 20.6000 -86.2000 TS 40 0 7 352
1945172N19274 1945 28 NA CS NOT_NAMED 1945-06-21 09:00:00 TS 20.9850 -86.2574 main 42 41 P_____________ AL011945 20.9850 -86.2574 TS 40 0 8 353
1945172N19274 1945 28 NA CS NOT_NAMED 1945-06-21 12:00:00 TS 21.4000 -86.3000 40 hurdat_atl main 52 52 O_____________ hurdat_atl AL011945 21.4000 -86.3000 TS 40 0 8 358
1945172N19274 1945 28 NA GM NOT_NAMED 1945-06-21 15:00:00 TS 21.8000 -86.3001 main 76 76 P_____________ AL011945 21.8000 -86.3001 TS 40 0 8 1
1945172N19274 1945 28 NA GM NOT_NAMED 1945-06-21 18:00:00 TS 22.2000 -86.3000 40 hurdat_atl main 106 106 O_____________ hurdat_atl AL011945 22.2000 -86.3000 TS 40 0 8 357
1945172N19274 1945 28 NA GM NOT_NAMED 1945-06-21 21:00:00 TS 22.6000 -86.3499 main 142 137 P_____________ AL011945 22.6000 -86.3499 TS 40 0 8 354
1945172N19274 1945 28 NA GM NOT_NAMED 1945-06-22 00:00:00 TS 23.0000 -86.4000 40 hurdat_atl main 178 178 O_____________ hurdat_atl AL011945 23.0000 -86.4000 TS 40 0 8 357
1945172N19274 1945 28 NA GM NOT_NAMED 1945-06-22 03:00:00 TS 23.4075 -86.4001 main 220 220 P_____________ AL011945 23.4075 -86.4001 TS 42 0 8 1
1945172N19274 1945 28 NA GM NOT_NAMED 1945-06-22 06:00:00 TS 23.8000 -86.4000 45 hurdat_atl main 256 256 O_____________ hurdat_atl AL011945 23.8000 -86.4000 TS 45 0 8 358
1945172N19274 1945 28 NA GM NOT_NAMED 1945-06-22 09:00:00 TS 24.1575 -86.4425 main 293 293 P_____________ AL011945 24.1575 -86.4425 TS 45 0 7 353
1945172N19274 1945 28 NA GM NOT_NAMED 1945-06-22 12:00:00 TS 24.5000 -86.5000 45 hurdat_atl main 323 323 O_____________ hurdat_atl AL011945 24.5000 -86.5000 TS 45 0 7 352
1945172N19274 1945 28 NA GM NOT_NAMED 1945-06-22 15:00:00 TS 24.8500 -86.5575 main 361 361 P_____________ AL011945 24.8500 -86.5575 TS 47 0 7 353
1945172N19274 1945 28 NA GM NOT_NAMED 1945-06-22 18:00:00 TS 25.2000 -86.6000 50 hurdat_atl main 384 384 O_____________ hurdat_atl AL011945 25.2000 -86.6000 TS 50 0 7 357
1945172N19274 1945 28 NA GM NOT_NAMED 1945-06-22 21:00:00 TS 25.5500 -86.6076 main 417 409 P_____________ AL011945 25.5500 -86.6076 TS 50 0 7 0
1945172N19274 1945 28 NA GM NOT_NAMED 1945-06-23 00:00:00 TS 25.9000 -86.6000 50 hurdat_atl main 424 397 O_____________ hurdat_atl AL011945 25.9000 -86.6000 TS 50 0 7 2
1945172N19274 1945 28 NA GM NOT_NAMED 1945-06-23 03:00:00 TS 26.2575 -86.6074 main 389 363 P_____________ AL011945 26.2575 -86.6074 TS 52 0 7 0
1945172N19274 1945 28 NA GM NOT_NAMED 1945-06-23 06:00:00 TS 26.6000 -86.6000 55 hurdat_atl main 363 333 O_____________ hurdat_atl AL011945 26.6000 -86.6000 TS 55 0 7 0
1945172N19274 1945 28 NA GM NOT_NAMED 1945-06-23 09:00:00 TS 26.9224 -86.5874 main 333 299 P_____________ AL011945 26.9224 -86.5874 TS 62 0 6 8
1945172N19274 1945 28 NA GM NOT_NAMED 1945-06-23 12:00:00 TS 27.2000 -86.5000 70 hurdat_atl main 299 271 O_____________ hurdat_atl AL011945 27.2000 -86.5000 HU 70 1 6 26
1945172N19274 1945 28 NA GM NOT_NAMED 1945-06-23 15:00:00 TS 27.4148 -86.3173 main 271 241 P_____________ AL011945 27.4148 -86.3173 HU 77 1 6 48
1945172N19274 1945 28 NA GM NOT_NAMED 1945-06-23 18:00:00 TS 27.6000 -86.0000 85 hurdat_atl main 241 212 O_____________ hurdat_atl AL011945 27.6000 -86.0000 HU 85 2 8 60
1945172N19274 1945 28 NA GM NOT_NAMED 1945-06-23 21:00:00 TS 27.7922 -85.5746 main 212 189 P_____________ AL011945 27.7922 -85.5746 HU 82 1 10 66
1945172N19274 1945 28 NA GM NOT_NAMED 1945-06-24 00:00:00 TS 28.0000 -85.0000 80 hurdat_atl main 189 153 O_____________ hurdat_atl AL011945 28.0000 -85.0000 HU 80 1 12 66
1945172N19274 1945 28 NA GM NOT_NAMED 1945-06-24 03:00:00 TS 28.2659 -84.3871 main 153 90 P_____________ AL011945 28.2659 -84.3871 HU 75 1 14 69
1945172N19274 1945 28 NA GM NOT_NAMED 1945-06-24 06:00:00 TS 28.5000 -83.5000 70 hurdat_atl main 81 9 O_____________ hurdat_atl AL011945 28.5000 -83.5000 HU 70 1 18 77
1945172N19274 1945 28 NA GM NOT_NAMED 1945-06-24 08:00:00 TS 28.6000 -82.7000 70 hurdat_atl main 9 0 O_____________ hurdat_atl AL011945 28.6000 -82.7000 L HU 70 1 19 79
1945172N19274 1945 28 NA NA NOT_NAMED 1945-06-24 09:00:00 TS 28.6758 -82.4335 main 0 0 P_____________ AL011945 28.6758 -82.4335 HU 65 1 11 57
1945172N19274 1945 28 NA NA NOT_NAMED 1945-06-24 12:00:00 TS 29.0000 -82.0000 50 hurdat_atl main 0 0 O_____________ hurdat_atl AL011945 29.0000 -82.0000 TS 50 0 11 50
1945172N19274 1945 28 NA NA NOT_NAMED 1945-06-24 15:00:00 TS 29.3745 -81.4882 main 0 0 P_____________ AL011945 29.3745 -81.4882 TS 55 0 12 47
1945172N19274 1945 28 NA NA NOT_NAMED 1945-06-24 18:00:00 TS 29.8000 -81.0000 60 hurdat_atl main 28 28 O_____________ hurdat_atl AL011945 29.8000 -81.0000 TS 60 0 12 44
1945172N19274 1945 28 NA NA NOT_NAMED 1945-06-24 21:00:00 TS 30.2348 -80.5346 main 87 87 P_____________ AL011945 30.2348 -80.5346 TS 62 0 12 41
1945172N19274 1945 28 NA NA NOT_NAMED 1945-06-25 00:00:00 TS 30.7000 -80.1000 65 hurdat_atl main 124 123 O_____________ hurdat_atl AL011945 30.7000 -80.1000 HU 65 1 12 37
1945172N19274 1945 28 NA NA NOT_NAMED 1945-06-25 03:00:00 TS 31.1848 -79.6920 main 137 120 P_____________ AL011945 31.1848 -79.6920 HU 65 1 12 34
1945172N19274 1945 28 NA NA NOT_NAMED 1945-06-25 06:00:00 TS 31.7000 -79.3000 65 hurdat_atl main 120 96 O_____________ hurdat_atl AL011945 31.7000 -79.3000 HU 65 1 13 32
1945172N19274 1945 28 NA NA NOT_NAMED 1945-06-25 09:00:00 TS 32.2497 -78.9145 main 100 78 P_____________ AL011945 32.2497 -78.9145 HU 65 1 13 32
1945172N19274 1945 28 NA NA NOT_NAMED 1945-06-25 12:00:00 TS 32.8000 -78.5000 65 hurdat_atl main 78 66 O_____________ hurdat_atl AL011945 32.8000 -78.5000 HU 65 1 13 36
1945172N19274 1945 28 NA NA NOT_NAMED 1945-06-25 15:00:00 TS 33.3226 -78.0001 main 66 43 P_____________ AL011945 33.3226 -78.0001 HU 65 1 13 40
1945172N19274 1945 28 NA NA NOT_NAMED 1945-06-25 18:00:00 TS 33.8000 -77.5000 65 hurdat_atl main 47 43 O_____________ hurdat_atl AL011945 33.8000 -77.5000 HU 65 1 12 40
1945172N19274 1945 28 NA NA NOT_NAMED 1945-06-25 21:00:00 TS 34.2389 -77.0608 main 43 11 P_____________ AL011945 34.2389 -77.0608 HU 65 1 10 40
1945172N19274 1945 28 NA NA NOT_NAMED 1945-06-26 00:00:00 TS 34.6000 -76.7000 65 hurdat_atl main 11 0 O_____________ hurdat_atl AL011945 34.6000 -76.7000 HU 65 1 9 39
1945172N19274 1945 28 NA NA NOT_NAMED 1945-06-26 01:00:00 TS 34.7000 -76.6000 65 hurdat_atl main 0 0 O_____________ hurdat_atl AL011945 34.7000 -76.6000 L HU 65 1 12 39
1945172N19274 1945 28 NA NA NOT_NAMED 1945-06-26 03:00:00 TS 35.0484 -76.2591 main 11 0 P_____________ AL011945 35.0484 -76.2591 HU 65 1 17 39
1945172N19274 1945 28 NA NA NOT_NAMED 1945-06-26 06:00:00 TS 35.8000 -75.5000 65 hurdat_atl main 0 0 O_____________ hurdat_atl AL011945 35.8000 -75.5000 HU 65 1 20 40
1945172N19274 1945 28 NA NA NOT_NAMED 1945-06-26 09:00:00 TS 36.5647 -74.6676 main 99 99 P_____________ AL011945 36.5647 -74.6676 HU 65 1 20 42
1945172N19274 1945 28 NA NA NOT_NAMED 1945-06-26 12:00:00 TS 37.3000 -73.8000 65 hurdat_atl main 158 158 O_____________ hurdat_atl AL011945 37.3000 -73.8000 HU 65 1 19 45
1945172N19274 1945 28 NA NA NOT_NAMED 1945-06-26 15:00:00 TS 37.8871 -73.0108 main 188 188 P_____________ AL011945 37.8871 -73.0108 HU 65 1 16 47
1945172N19274 1945 28 NA NA NOT_NAMED 1945-06-26 18:00:00 TS 38.4000 -72.3000 65 hurdat_atl main 211 211 O_____________ hurdat_atl AL011945 38.4000 -72.3000 HU 65 1 15 46
1945172N19274 1945 28 NA NA NOT_NAMED 1945-06-26 21:00:00 TS 38.9220 -71.6617 main 224 201 P_____________ AL011945 38.9220 -71.6617 HU 65 1 14 43
1945172N19274 1945 28 NA NA NOT_NAMED 1945-06-27 00:00:00 TS 39.4000 -71.1000 65 hurdat_atl main 201 189 O_____________ hurdat_atl AL011945 39.4000 -71.1000 HU 65 1 12 42
1945172N19274 1945 28 NA NA NOT_NAMED 1945-06-27 03:00:00 TS 39.8295 -70.5915 main 189 150 P_____________ AL011945 39.8295 -70.5915 HU 65 1 11 44
1945172N19274 1945 28 NA NA NOT_NAMED 1945-06-27 06:00:00 ET 40.2000 -70.1000 65 hurdat_atl main 153 135 O_____________ hurdat_atl AL011945 40.2000 -70.1000 EX 65 -4 11 49
1945172N19274 1945 28 NA NA NOT_NAMED 1945-06-27 09:00:00 ET 40.5225 -69.5421 main 139 125 P_____________ AL011945 40.5225 -69.5421 EX 65 -4 10 54
1945172N19274 1945 28 NA NA NOT_NAMED 1945-06-27 12:00:00 ET 40.8000 -69.0000 65 hurdat_atl main 130 127 O_____________ hurdat_atl AL011945 40.8000 -69.0000 EX 65 -4 9 55
1945172N19274 1945 28 NA NA NOT_NAMED 1945-06-27 15:00:00 ET 41.0647 -68.5270 main 141 141 P_____________ AL011945 41.0647 -68.5270 EX 60 -4 8 54
1945172N19274 1945 28 NA NA NOT_NAMED 1945-06-27 18:00:00 ET 41.3000 -68.1000 55 hurdat_atl main 163 163 O_____________ hurdat_atl AL011945 41.3000 -68.1000 EX 55 -4 8 54
1945172N19274 1945 28 NA NA NOT_NAMED 1945-06-27 21:00:00 ET 41.5223 -67.6923 main 191 191 P_____________ AL011945 41.5223 -67.6923 EX 50 -4 7 56
1945172N19274 1945 28 NA NA NOT_NAMED 1945-06-28 00:00:00 ET 41.7000 -67.3000 45 hurdat_atl main 223 212 O_____________ hurdat_atl AL011945 41.7000 -67.3000 EX 45 -4 6 64
1945172N19274 1945 28 NA NA NOT_NAMED 1945-06-28 03:00:00 ET 41.8072 -66.9144 main 212 189 P_____________ AL011945 41.8072 -66.9144 EX 45 -4 6 71
1945172N19274 1945 28 NA NA NOT_NAMED 1945-06-28 06:00:00 ET 41.9000 -66.5000 45 hurdat_atl main 189 169 O_____________ hurdat_atl AL011945 41.9000 -66.5000 EX 45 -4 7 71
1945172N19274 1945 28 NA NA NOT_NAMED 1945-06-28 09:00:00 ET 42.0349 -66.0223 main 168 144 P_____________ AL011945 42.0349 -66.0223 EX 45 -4 8 68
1945172N19274 1945 28 NA NA NOT_NAMED 1945-06-28 12:00:00 ET 42.2000 -65.5000 45 hurdat_atl main 144 123 O_____________ hurdat_atl AL011945 42.2000 -65.5000 EX 45 -4 9 66
1945172N19274 1945 28 NA NA NOT_NAMED 1945-06-28 15:00:00 ET 42.3847 -64.9646 main 124 118 P_____________ AL011945 42.3847 -64.9646 EX 42 -4 9 64
1945172N19274 1945 28 NA NA NOT_NAMED 1945-06-28 18:00:00 ET 42.6000 -64.4000 40 hurdat_atl main 123 123 O_____________ hurdat_atl AL011945 42.6000 -64.4000 EX 40 -4 9 62
1945172N19274 1945 28 NA NA NOT_NAMED 1945-06-28 21:00:00 ET 42.8269 -63.8290 main 137 128 P_____________ AL011945 42.8269 -63.8290 EX 40 -4 10 60
1945172N19274 1945 28 NA NA NOT_NAMED 1945-06-29 00:00:00 ET 43.1000 -63.2000 40 hurdat_atl main 148 136 O_____________ hurdat_atl AL011945 43.1000 -63.2000 EX 40 -4 11 59
1945172N19274 1945 28 NA NA NOT_NAMED 1945-06-29 03:00:00 ET 43.4121 -62.4863 main 141 124 P_____________ AL011945 43.4121 -62.4863 EX 40 -4 13 57
1945172N19274 1945 28 NA NA NOT_NAMED 1945-06-29 06:00:00 ET 43.8000 -61.7000 40 hurdat_atl main 127 107 O_____________ hurdat_atl AL011945 43.8000 -61.7000 EX 40 -4 14 54
1945172N19274 1945 28 NA NA NOT_NAMED 1945-06-29 09:00:00 ET 44.2697 -60.8645 main 101 86 P_____________ AL011945 44.2697 -60.8645 EX 40 -4 16 51
1945172N19274 1945 28 NA NA NOT_NAMED 1945-06-29 12:00:00 ET 44.8000 -60.0000 40 hurdat_atl main 94 83 O_____________ hurdat_atl AL011945 44.8000 -60.0000 EX 40 -4 16 49
1945172N19274 1945 28 NA NA NOT_NAMED 1945-06-29 15:00:00 ET 45.3344 -59.1483 main 95 89 P_____________ AL011945 45.3344 -59.1483 EX 40 -4 16 47
1945172N19274 1945 28 NA NA NOT_NAMED 1945-06-29 18:00:00 ET 45.9000 -58.3000 40 hurdat_atl main 120 120 O_____________ hurdat_atl AL011945 45.9000 -58.3000 EX 40 -4 16 46
1945172N19274 1945 28 NA NA NOT_NAMED 1945-06-29 21:00:00 ET 46.4767 -57.4550 main 119 46 P_____________ AL011945 46.4767 -57.4550 EX 37 -4 17 44
1945172N19274 1945 28 NA NA NOT_NAMED 1945-06-30 00:00:00 ET 47.1000 -56.6000 35 hurdat_atl main 46 0 O_____________ hurdat_atl AL011945 47.1000 -56.6000 EX 35 -4 18 42
1945172N19274 1945 28 NA NA NOT_NAMED 1945-06-30 03:00:00 ET 47.7770 -55.7057 main 0 0 P_____________ AL011945 47.7770 -55.7057 EX 35 -4 18 41
1945172N19274 1945 28 NA NA NOT_NAMED 1945-06-30 06:00:00 ET 48.5000 -54.8000 35 hurdat_atl main 0 0 O_____________ hurdat_atl AL011945 48.5000 -54.8000 EX 35 -4 19 39
1945172N19274 1945 28 NA NA NOT_NAMED 1945-06-30 09:00:00 ET 49.2255 -53.9466 main 0 0 P_____________ AL011945 49.2255 -53.9466 EX 35 -4 19 38
1945172N19274 1945 28 NA NA NOT_NAMED 1945-06-30 12:00:00 ET 50.0000 -53.0000 35 hurdat_atl main 85 85 O_____________ hurdat_atl AL011945 50.0000 -53.0000 EX 35 -4 21 40
1945172N19274 1945 28 NA NA NOT_NAMED 1945-06-30 15:00:00 ET 50.8191 -51.8355 main 205 205 P_____________ AL011945 50.8191 -51.8355 EX 35 -4 23 43
1945172N19274 1945 28 NA NA NOT_NAMED 1945-06-30 18:00:00 ET 51.7000 -50.5000 35 hurdat_atl main 339 339 O_____________ hurdat_atl AL011945 51.7000 -50.5000 EX 35 -4 25 44
1945172N19274 1945 28 NA NA NOT_NAMED 1945-06-30 21:00:00 ET 52.6113 -49.0530 main 438 438 P_____________ AL011945 52.6113 -49.0530 EX 35 -4 26 44
1945172N19274 1945 28 NA NA NOT_NAMED 1945-07-01 00:00:00 ET 53.6000 -47.5000 35 hurdat_atl main 547 547 O_____________ hurdat_atl AL011945 53.6000 -47.5000 EX 35 -4 28 42
1945172N19274 1945 28 NA NA NOT_NAMED 1945-07-01 03:00:00 ET 54.6921 -45.8491 main 589 476 P_____________ AL011945 54.6921 -45.8491 EX 35 -4 29 41
1945172N19274 1945 28 NA NA NOT_NAMED 1945-07-01 06:00:00 ET 55.8000 -44.2000 35 hurdat_atl main 465 366 O_____________ hurdat_atl AL011945 55.8000 -44.2000 EX 35 -4 28 40
1945172N19274 1945 28 NA NA NOT_NAMED 1945-07-01 09:00:00 ET 56.8514 -42.6148 main 355 274 P_____________ AL011945 56.8514 -42.6148 EX 35 -4 26 39
1945172N19274 1945 28 NA NA NOT_NAMED 1945-07-01 12:00:00 ET 57.8000 -41.2000 35 hurdat_atl main 276 236 O_____________ hurdat_atl AL011945 57.8000 -41.2000 EX 35 -4 22 38
1945172N19274 1945 28 NA NA NOT_NAMED 1945-07-01 15:00:00 ET 58.6229 -39.9952 main 240 234 P_____________ AL011945 58.6229 -39.9952 EX 35 -4 19 37
1945172N19274 1945 28 NA NA NOT_NAMED 1945-07-01 18:00:00 ET 59.3000 -39.0000 35 hurdat_atl main 245 245 O_____________ hurdat_atl AL011945 59.3000 -39.0000 EX 35 -4 16 38
1945172N19274 1945 28 NA NA NOT_NAMED 1945-07-01 21:00:00 ET 59.8813 -38.0937 main 271 271 P_____________ AL011945 59.8813 -38.0937 EX 37 -4 13 40
1945172N19274 1945 28 NA NA NOT_NAMED 1945-07-02 00:00:00 ET 60.3000 -37.3000 40 hurdat_atl main 299 299 O_____________ hurdat_atl AL011945 60.3000 -37.3000 EX 40 -4 10 49
1945172N19274 1945 28 NA NA NOT_NAMED 1945-07-02 03:00:00 ET 60.5520 -36.5162 main 327 327 P_____________ AL011945 60.5520 -36.5162 EX 40 -4 8 62
1945172N19274 1945 28 NA NA NOT_NAMED 1945-07-02 06:00:00 ET 60.7000 -35.8000 40 hurdat_atl main 357 357 O_____________ hurdat_atl AL011945 60.7000 -35.8000 EX 40 -4 7 65
1945172N19274 1945 28 NA NA NOT_NAMED 1945-07-02 09:00:00 ET 60.8646 -35.1267 main 386 386 P_____________ AL011945 60.8646 -35.1267 EX 40 -4 7 65
1945172N19274 1945 28 NA NA NOT_NAMED 1945-07-02 12:00:00 ET 61.0000 -34.5000 40 hurdat_atl main 414 414 O_____________ hurdat_atl AL011945 61.0000 -34.5000 EX 40 -4 6 68
1945172N19274 1945 28 NA NA NOT_NAMED 1945-07-02 15:00:00 ET 61.1073 -33.8768 main 441 441 P_____________ AL011945 61.1073 -33.8768 EX 40 -4 6 71
1945172N19274 1945 28 NA NA NOT_NAMED 1945-07-02 18:00:00 ET 61.2000 -33.3000 40 hurdat_atl main 459 459 O_____________ hurdat_atl AL011945 61.2000 -33.3000 EX 40 -4 6 71
1945172N19274 1945 28 NA NA NOT_NAMED 1945-07-02 21:00:00 ET 61.2921 -32.7842 main 473 473 P_____________ AL011945 61.2921 -32.7842 EX 37 -4 5 67
1945172N19274 1945 28 NA NA NOT_NAMED 1945-07-03 00:00:00 ET 61.4000 -32.3000 35 hurdat_atl main 488 488 O_____________ hurdat_atl AL011945 61.4000 -32.3000 EX 35 -4 5 62
1945172N19274 1945 28 NA NA NOT_NAMED 1945-07-03 03:00:00 ET 61.5421 -31.8220 main 504 492 P_____________ AL011945 61.5421 -31.8220 EX 35 -4 6 58
1945172N19274 1945 28 NA NA NOT_NAMED 1945-07-03 06:00:00 ET 61.7000 -31.3000 35 hurdat_atl main 492 459 O_____________ hurdat_atl AL011945 61.7000 -31.3000 EX 35 -4 6 61
1945172N19274 1945 28 NA NA NOT_NAMED 1945-07-03 09:00:00 ET 61.8424 -30.6791 main 459 417 P_____________ AL011945 61.8424 -30.6791 EX 32 -4 7 64
1945172N19274 1945 28 NA NA NOT_NAMED 1945-07-03 12:00:00 ET 62.0000 -30.0000 30 hurdat_atl main 417 379 O_____________ hurdat_atl AL011945 62.0000 -30.0000 EX 30 -4 7 62
1945172N19274 1945 28 NA NA NOT_NAMED 1945-07-03 15:00:00 ET 62.1847 -29.3140 main 374 332 P_____________ AL011945 62.1847 -29.3140 EX 30 -4 8 59
1945172N19274 1945 28 NA NA NOT_NAMED 1945-07-03 18:00:00 ET 62.4000 -28.6000 30 hurdat_atl main 332 290 O_____________ hurdat_atl AL011945 62.4000 -28.6000 EX 30 -4 8 57
1945172N19274 1945 28 NA NA NOT_NAMED 1945-07-03 21:00:00 ET 62.6272 -27.8558 main 290 239 P_____________ AL011945 62.6272 -27.8558 EX 30 -4 8 54
1945172N19274 1945 28 NA NA NOT_NAMED 1945-07-04 00:00:00 ET 62.9000 -27.1000 30 hurdat_atl main 239 193 O_____________ hurdat_atl AL011945 62.9000 -27.1000 EX 30 -4 9 49
1945172N19274 1945 28 NA NA NOT_NAMED 1945-07-04 03:00:00 ET 63.2195 -26.3553 main 193 143 P_____________ AL011945 63.2195 -26.3553 EX 30 -4 10 44
1945172N19274 1945 28 NA NA NOT_NAMED 1945-07-04 06:00:00 ET 63.6000 -25.6000 30 hurdat_atl main 143 93 O_____________ hurdat_atl AL011945 63.6000 -25.6000 EX 30 -4 11 40
1945172N19274 1945 28 NA NA NOT_NAMED 1945-07-04 09:00:00 ET 64.0360 -24.8159 main 90 24 P_____________ AL011945 64.0360 -24.8159 EX 27 -4 11 38
1945172N19274 1945 28 NA NA NOT_NAMED 1945-07-04 12:00:00 ET 64.5000 -24.0000 25 hurdat_atl main 24 O_____________ hurdat_atl AL011945 64.5000 -24.0000 EX 25 -4 12 37

IBTrACS Databaseについて

本データベースは、米国NOAAが公開する1842年以降の世界の熱帯低気圧のベストトラックデータアーカイブInternational Best Track Archive for Climate Stewardship (IBTrACS)を、ウェブで閲覧しやすい形式に変換したものです。

最終更新日:2021-11-26